sensor_id;sensor_type;location;lat;lon;timestamp;P1;durP1;ratioP1;P2;durP2;ratioP2
51654;SDS011;37732;53.106;7.030;2022-11-15T00:01:15;27.80;;;23.10;;
51654;SDS011;37732;53.106;7.030;2022-11-15T00:03:43;25.50;;;22.75;;
51654;SDS011;37732;53.106;7.030;2022-11-15T00:06:09;25.35;;;22.38;;
51654;SDS011;37732;53.106;7.030;2022-11-15T00:08:36;25.52;;;22.80;;
51654;SDS011;37732;53.106;7.030;2022-11-15T00:11:02;24.73;;;22.02;;
51654;SDS011;37732;53.106;7.030;2022-11-15T00:13:29;26.33;;;23.48;;
51654;SDS011;37732;53.106;7.030;2022-11-15T00:15:58;26.20;;;21.90;;
51654;SDS011;37732;53.106;7.030;2022-11-15T00:18:25;26.88;;;22.70;;
51654;SDS011;37732;53.106;7.030;2022-11-15T00:20:53;26.55;;;22.17;;
51654;SDS011;37732;53.106;7.030;2022-11-15T00:23:18;25.77;;;23.05;;
51654;SDS011;37732;53.106;7.030;2022-11-15T00:25:45;26.23;;;23.30;;
51654;SDS011;37732;53.106;7.030;2022-11-15T00:28:11;25.73;;;22.95;;
51654;SDS011;37732;53.106;7.030;2022-11-15T00:30:37;24.90;;;22.40;;
51654;SDS011;37732;53.106;7.030;2022-11-15T00:33:04;28.77;;;23.75;;
51654;SDS011;37732;53.106;7.030;2022-11-15T00:35:33;26.92;;;23.67;;
51654;SDS011;37732;53.106;7.030;2022-11-15T00:38:00;24.08;;;21.33;;
51654;SDS011;37732;53.106;7.030;2022-11-15T00:40:26;25.08;;;22.08;;
51654;SDS011;37732;53.106;7.030;2022-11-15T00:42:52;23.40;;;21.00;;
51654;SDS011;37732;53.106;7.030;2022-11-15T00:45:18;22.98;;;20.50;;
51654;SDS011;37732;53.106;7.030;2022-11-15T00:47:44;26.08;;;23.27;;
51654;SDS011;37732;53.106;7.030;2022-11-15T00:50:11;26.50;;;22.67;;
51654;SDS011;37732;53.106;7.030;2022-11-15T00:52:38;25.52;;;22.65;;
51654;SDS011;37732;53.106;7.030;2022-11-15T00:55:04;25.20;;;21.83;;
51654;SDS011;37732;53.106;7.030;2022-11-15T00:57:30;26.85;;;22.15;;
51654;SDS011;37732;53.106;7.030;2022-11-15T00:59:55;26.35;;;23.20;;
51654;SDS011;37732;53.106;7.030;2022-11-15T01:02:21;23.65;;;20.05;;
51654;SDS011;37732;53.106;7.030;2022-11-15T01:04:47;25.52;;;22.60;;
51654;SDS011;37732;53.106;7.030;2022-11-15T01:07:14;26.40;;;22.25;;
51654;SDS011;37732;53.106;7.030;2022-11-15T01:09:39;25.75;;;21.60;;
51654;SDS011;37732;53.106;7.030;2022-11-15T01:12:05;24.80;;;22.17;;
51654;SDS011;37732;53.106;7.030;2022-11-15T01:14:31;29.10;;;22.88;;
51654;SDS011;37732;53.106;7.030;2022-11-15T01:16:57;25.35;;;22.23;;
51654;SDS011;37732;53.106;7.030;2022-11-15T01:19:23;24.10;;;20.55;;
51654;SDS011;37732;53.106;7.030;2022-11-15T01:21:49;23.70;;;21.13;;
51654;SDS011;37732;53.106;7.030;2022-11-15T01:24:15;27.70;;;24.90;;
51654;SDS011;37732;53.106;7.030;2022-11-15T01:26:42;29.45;;;26.15;;
51654;SDS011;37732;53.106;7.030;2022-11-15T01:29:07;28.33;;;25.33;;
51654;SDS011;37732;53.106;7.030;2022-11-15T01:31:34;28.70;;;25.60;;
51654;SDS011;37732;53.106;7.030;2022-11-15T01:33:59;29.17;;;25.33;;
51654;SDS011;37732;53.106;7.030;2022-11-15T01:36:25;27.15;;;24.25;;
51654;SDS011;37732;53.106;7.030;2022-11-15T01:38:54;30.17;;;25.98;;
51654;SDS011;37732;53.106;7.030;2022-11-15T01:41:27;29.75;;;25.08;;
51654;SDS011;37732;53.106;7.030;2022-11-15T01:43:55;29.85;;;25.88;;
51654;SDS011;37732;53.106;7.030;2022-11-15T01:46:40;27.73;;;24.83;;
51654;SDS011;37732;53.106;7.030;2022-11-15T01:49:16;27.83;;;24.83;;
51654;SDS011;37732;53.106;7.030;2022-11-15T01:51:46;30.88;;;25.17;;
51654;SDS011;37732;53.106;7.030;2022-11-15T01:54:13;29.73;;;26.52;;
51654;SDS011;37732;53.106;7.030;2022-11-15T01:56:43;28.45;;;25.45;;
51654;SDS011;37732;53.106;7.030;2022-11-15T01:59:24;28.60;;;24.63;;
51654;SDS011;37732;53.106;7.030;2022-11-15T02:01:50;29.50;;;25.60;;
51654;SDS011;37732;53.106;7.030;2022-11-15T02:04:59;33.85;;;26.50;;
51654;SDS011;37732;53.106;7.030;2022-11-15T02:07:11;27.92;;;23.83;;
51654;SDS011;37732;53.106;7.030;2022-11-15T02:09:40;28.15;;;25.02;;
51654;SDS011;37732;53.106;7.030;2022-11-15T02:12:07;28.95;;;24.80;;
51654;SDS011;37732;53.106;7.030;2022-11-15T02:14:36;28.75;;;22.95;;
51654;SDS011;37732;53.106;7.030;2022-11-15T02:22:38;29.13;;;24.60;;
51654;SDS011;37732;53.106;7.030;2022-11-15T02:30:55;28.92;;;22.05;;
51654;SDS011;37732;53.106;7.030;2022-11-15T02:36:05;26.75;;;22.83;;
51654;SDS011;37732;53.106;7.030;2022-11-15T02:41:34;25.98;;;22.45;;
51654;SDS011;37732;53.106;7.030;2022-11-15T02:44:14;29.42;;;24.35;;
51654;SDS011;37732;53.106;7.030;2022-11-15T02:46:57;24.80;;;22.17;;
51654;SDS011;37732;53.106;7.030;2022-11-15T02:49:46;28.25;;;21.95;;
51654;SDS011;37732;53.106;7.030;2022-11-15T02:52:15;27.10;;;22.38;;
51654;SDS011;37732;53.106;7.030;2022-11-15T03:11:56;29.15;;;22.90;;
51654;SDS011;37732;53.106;7.030;2022-11-15T03:14:29;25.77;;;21.98;;
51654;SDS011;37732;53.106;7.030;2022-11-15T03:17:05;27.98;;;23.30;;
51654;SDS011;37732;53.106;7.030;2022-11-15T03:22:11;29.50;;;24.02;;
51654;SDS011;37732;53.106;7.030;2022-11-15T03:24:43;30.73;;;24.02;;
51654;SDS011;37732;53.106;7.030;2022-11-15T03:27:13;30.60;;;23.40;;
51654;SDS011;37732;53.106;7.030;2022-11-15T03:29:46;34.72;;;25.35;;
51654;SDS011;37732;53.106;7.030;2022-11-15T03:32:20;34.40;;;26.13;;
51654;SDS011;37732;53.106;7.030;2022-11-15T03:35:04;34.10;;;25.48;;
51654;SDS011;37732;53.106;7.030;2022-11-15T03:37:42;35.75;;;24.92;;
51654;SDS011;37732;53.106;7.030;2022-11-15T03:40:16;40.88;;;26.73;;
51654;SDS011;37732;53.106;7.030;2022-11-15T03:42:48;38.53;;;25.83;;
51654;SDS011;37732;53.106;7.030;2022-11-15T03:45:23;40.90;;;28.02;;
51654;SDS011;37732;53.106;7.030;2022-11-15T03:47:58;41.78;;;28.23;;
51654;SDS011;37732;53.106;7.030;2022-11-15T03:50:30;42.65;;;28.60;;
51654;SDS011;37732;53.106;7.030;2022-11-15T03:52:56;35.28;;;25.05;;
51654;SDS011;37732;53.106;7.030;2022-11-15T03:55:23;35.63;;;27.52;;
51654;SDS011;37732;53.106;7.030;2022-11-15T03:57:50;42.88;;;28.70;;
51654;SDS011;37732;53.106;7.030;2022-11-15T04:00:18;34.65;;;25.27;;
51654;SDS011;37732;53.106;7.030;2022-11-15T04:02:44;40.50;;;27.30;;
51654;SDS011;37732;53.106;7.030;2022-11-15T04:05:10;33.35;;;26.17;;
51654;SDS011;37732;53.106;7.030;2022-11-15T04:07:36;42.95;;;26.67;;
51654;SDS011;37732;53.106;7.030;2022-11-15T04:10:02;34.22;;;25.13;;
51654;SDS011;37732;53.106;7.030;2022-11-15T04:15:04;43.55;;;27.85;;
51654;SDS011;37732;53.106;7.030;2022-11-15T04:17:32;33.20;;;24.52;;
51654;SDS011;37732;53.106;7.030;2022-11-15T04:20:02;36.75;;;26.85;;
51654;SDS011;37732;53.106;7.030;2022-11-15T04:22:53;34.35;;;26.30;;
51654;SDS011;37732;53.106;7.030;2022-11-15T04:25:39;34.15;;;24.50;;
51654;SDS011;37732;53.106;7.030;2022-11-15T04:28:05;40.75;;;27.08;;
51654;SDS011;37732;53.106;7.030;2022-11-15T04:30:31;46.20;;;27.80;;
51654;SDS011;37732;53.106;7.030;2022-11-15T04:32:56;39.90;;;28.17;;
51654;SDS011;37732;53.106;7.030;2022-11-15T04:35:23;35.33;;;25.90;;
51654;SDS011;37732;53.106;7.030;2022-11-15T04:37:49;38.90;;;26.85;;
51654;SDS011;37732;53.106;7.030;2022-11-15T04:40:15;41.92;;;29.35;;
51654;SDS011;37732;53.106;7.030;2022-11-15T04:42:42;40.45;;;29.48;;
51654;SDS011;37732;53.106;7.030;2022-11-15T04:45:08;38.78;;;28.02;;
51654;SDS011;37732;53.106;7.030;2022-11-15T04:47:34;41.03;;;30.73;;
51654;SDS011;37732;53.106;7.030;2022-11-15T04:50:00;42.00;;;28.10;;
51654;SDS011;37732;53.106;7.030;2022-11-15T04:52:26;43.85;;;29.95;;
51654;SDS011;37732;53.106;7.030;2022-11-15T04:54:52;38.90;;;30.10;;
51654;SDS011;37732;53.106;7.030;2022-11-15T04:57:18;39.17;;;29.45;;
51654;SDS011;37732;53.106;7.030;2022-11-15T04:59:44;40.83;;;29.80;;
51654;SDS011;37732;53.106;7.030;2022-11-15T05:02:10;45.58;;;30.52;;
51654;SDS011;37732;53.106;7.030;2022-11-15T05:04:36;42.25;;;30.55;;
51654;SDS011;37732;53.106;7.030;2022-11-15T05:07:02;45.65;;;32.78;;
51654;SDS011;37732;53.106;7.030;2022-11-15T05:09:29;47.63;;;32.70;;
51654;SDS011;37732;53.106;7.030;2022-11-15T05:11:55;42.95;;;32.78;;
51654;SDS011;37732;53.106;7.030;2022-11-15T05:14:20;50.13;;;35.30;;
51654;SDS011;37732;53.106;7.030;2022-11-15T05:16:46;51.65;;;33.22;;
51654;SDS011;37732;53.106;7.030;2022-11-15T05:19:12;56.30;;;36.97;;
51654;SDS011;37732;53.106;7.030;2022-11-15T05:21:38;51.10;;;36.00;;
51654;SDS011;37732;53.106;7.030;2022-11-15T05:24:04;43.17;;;35.30;;
51654;SDS011;37732;53.106;7.030;2022-11-15T05:26:31;57.40;;;39.67;;
51654;SDS011;37732;53.106;7.030;2022-11-15T05:28:58;56.58;;;39.10;;
51654;SDS011;37732;53.106;7.030;2022-11-15T05:31:24;61.40;;;41.67;;
51654;SDS011;37732;53.106;7.030;2022-11-15T05:33:52;57.08;;;37.83;;
51654;SDS011;37732;53.106;7.030;2022-11-15T05:36:27;59.15;;;41.05;;
51654;SDS011;37732;53.106;7.030;2022-11-15T05:38:58;59.60;;;41.78;;
51654;SDS011;37732;53.106;7.030;2022-11-15T05:41:31;56.03;;;36.95;;
51654;SDS011;37732;53.106;7.030;2022-11-15T05:44:02;62.38;;;39.72;;
51654;SDS011;37732;53.106;7.030;2022-11-15T05:46:31;58.97;;;37.83;;
51654;SDS011;37732;53.106;7.030;2022-11-15T05:48:59;59.80;;;37.75;;
51654;SDS011;37732;53.106;7.030;2022-11-15T05:51:25;57.70;;;38.35;;
51654;SDS011;37732;53.106;7.030;2022-11-15T05:53:55;56.55;;;36.83;;
51654;SDS011;37732;53.106;7.030;2022-11-15T05:56:24;54.38;;;36.85;;
51654;SDS011;37732;53.106;7.030;2022-11-15T05:58:51;57.45;;;35.28;;
51654;SDS011;37732;53.106;7.030;2022-11-15T06:01:21;59.17;;;40.30;;
51654;SDS011;37732;53.106;7.030;2022-11-15T06:03:48;53.88;;;36.97;;
51654;SDS011;37732;53.106;7.030;2022-11-15T06:06:14;53.22;;;35.47;;
51654;SDS011;37732;53.106;7.030;2022-11-15T06:08:40;53.67;;;34.38;;
51654;SDS011;37732;53.106;7.030;2022-11-15T06:11:06;46.13;;;33.78;;
51654;SDS011;37732;53.106;7.030;2022-11-15T06:13:32;44.33;;;32.83;;
51654;SDS011;37732;53.106;7.030;2022-11-15T06:15:59;43.50;;;32.50;;
51654;SDS011;37732;53.106;7.030;2022-11-15T06:18:25;42.83;;;32.67;;
51654;SDS011;37732;53.106;7.030;2022-11-15T06:20:52;46.42;;;32.90;;
51654;SDS011;37732;53.106;7.030;2022-11-15T06:23:18;41.42;;;30.17;;
51654;SDS011;37732;53.106;7.030;2022-11-15T06:25:43;48.70;;;32.70;;
51654;SDS011;37732;53.106;7.030;2022-11-15T06:28:09;42.58;;;29.67;;
51654;SDS011;37732;53.106;7.030;2022-11-15T06:30:35;41.70;;;28.67;;
51654;SDS011;37732;53.106;7.030;2022-11-15T06:33:02;42.47;;;30.15;;
51654;SDS011;37732;53.106;7.030;2022-11-15T06:35:29;36.20;;;29.33;;
51654;SDS011;37732;53.106;7.030;2022-11-15T06:37:55;41.30;;;29.73;;
51654;SDS011;37732;53.106;7.030;2022-11-15T06:40:27;35.80;;;26.13;;
51654;SDS011;37732;53.106;7.030;2022-11-15T06:42:57;36.05;;;28.17;;
51654;SDS011;37732;53.106;7.030;2022-11-15T06:45:24;34.95;;;27.42;;
51654;SDS011;37732;53.106;7.030;2022-11-15T06:47:50;37.35;;;27.15;;
51654;SDS011;37732;53.106;7.030;2022-11-15T06:50:16;33.08;;;26.67;;
51654;SDS011;37732;53.106;7.030;2022-11-15T06:52:42;34.92;;;27.92;;
51654;SDS011;37732;53.106;7.030;2022-11-15T06:55:07;33.83;;;27.95;;
51654;SDS011;37732;53.106;7.030;2022-11-15T06:57:34;34.95;;;27.33;;
51654;SDS011;37732;53.106;7.030;2022-11-15T07:00:00;35.92;;;27.80;;
51654;SDS011;37732;53.106;7.030;2022-11-15T07:02:28;31.90;;;24.88;;
51654;SDS011;37732;53.106;7.030;2022-11-15T07:04:54;32.75;;;27.65;;
51654;SDS011;37732;53.106;7.030;2022-11-15T07:07:20;36.00;;;26.35;;
51654;SDS011;37732;53.106;7.030;2022-11-15T07:09:45;32.65;;;26.17;;
51654;SDS011;37732;53.106;7.030;2022-11-15T07:12:11;30.48;;;24.20;;
51654;SDS011;37732;53.106;7.030;2022-11-15T07:14:36;29.80;;;25.13;;
51654;SDS011;37732;53.106;7.030;2022-11-15T07:17:03;28.83;;;23.88;;
51654;SDS011;37732;53.106;7.030;2022-11-15T07:19:30;29.70;;;24.73;;
51654;SDS011;37732;53.106;7.030;2022-11-15T07:21:55;32.10;;;25.05;;
51654;SDS011;37732;53.106;7.030;2022-11-15T07:24:22;28.90;;;23.35;;
51654;SDS011;37732;53.106;7.030;2022-11-15T07:26:48;28.45;;;24.30;;
51654;SDS011;37732;53.106;7.030;2022-11-15T07:29:13;28.00;;;24.13;;
51654;SDS011;37732;53.106;7.030;2022-11-15T07:31:40;28.88;;;24.80;;
51654;SDS011;37732;53.106;7.030;2022-11-15T07:34:06;30.92;;;23.95;;
51654;SDS011;37732;53.106;7.030;2022-11-15T07:36:32;30.33;;;24.92;;
51654;SDS011;37732;53.106;7.030;2022-11-15T07:38:57;29.65;;;24.13;;
51654;SDS011;37732;53.106;7.030;2022-11-15T07:41:24;29.45;;;23.55;;
51654;SDS011;37732;53.106;7.030;2022-11-15T07:43:53;29.83;;;24.70;;
51654;SDS011;37732;53.106;7.030;2022-11-15T07:46:19;30.83;;;25.15;;
51654;SDS011;37732;53.106;7.030;2022-11-15T07:48:44;29.92;;;24.08;;
51654;SDS011;37732;53.106;7.030;2022-11-15T07:51:14;30.10;;;24.15;;
51654;SDS011;37732;53.106;7.030;2022-11-15T07:53:44;32.08;;;23.88;;
51654;SDS011;37732;53.106;7.030;2022-11-15T07:56:10;28.70;;;23.35;;
51654;SDS011;37732;53.106;7.030;2022-11-15T07:58:36;27.15;;;22.42;;
51654;SDS011;37732;53.106;7.030;2022-11-15T08:01:05;26.05;;;21.92;;
51654;SDS011;37732;53.106;7.030;2022-11-15T08:03:34;27.45;;;22.30;;
51654;SDS011;37732;53.106;7.030;2022-11-15T08:06:01;26.90;;;21.88;;
51654;SDS011;37732;53.106;7.030;2022-11-15T08:08:27;28.33;;;22.80;;
51654;SDS011;37732;53.106;7.030;2022-11-15T08:10:53;26.77;;;22.60;;
51654;SDS011;37732;53.106;7.030;2022-11-15T08:13:19;26.52;;;22.38;;
51654;SDS011;37732;53.106;7.030;2022-11-15T08:15:46;25.27;;;21.40;;
51654;SDS011;37732;53.106;7.030;2022-11-15T08:18:13;24.33;;;21.20;;
51654;SDS011;37732;53.106;7.030;2022-11-15T08:20:40;29.10;;;21.77;;
51654;SDS011;37732;53.106;7.030;2022-11-15T08:23:07;26.40;;;21.90;;
51654;SDS011;37732;53.106;7.030;2022-11-15T08:25:35;28.10;;;22.05;;
51654;SDS011;37732;53.106;7.030;2022-11-15T08:28:02;25.10;;;22.40;;
51654;SDS011;37732;53.106;7.030;2022-11-15T08:30:30;24.85;;;20.90;;
51654;SDS011;37732;53.106;7.030;2022-11-15T08:32:59;25.90;;;21.00;;
51654;SDS011;37732;53.106;7.030;2022-11-15T08:35:25;24.77;;;22.08;;
51654;SDS011;37732;53.106;7.030;2022-11-15T08:37:52;30.10;;;22.13;;
51654;SDS011;37732;53.106;7.030;2022-11-15T08:40:18;25.77;;;21.73;;
51654;SDS011;37732;53.106;7.030;2022-11-15T08:42:46;26.25;;;21.70;;
51654;SDS011;37732;53.106;7.030;2022-11-15T08:45:12;25.38;;;22.58;;
51654;SDS011;37732;53.106;7.030;2022-11-15T08:47:38;27.05;;;21.67;;
51654;SDS011;37732;53.106;7.030;2022-11-15T08:50:05;26.77;;;22.30;;
51654;SDS011;37732;53.106;7.030;2022-11-15T08:52:31;25.90;;;21.95;;
51654;SDS011;37732;53.106;7.030;2022-11-15T08:54:58;29.23;;;23.45;;
51654;SDS011;37732;53.106;7.030;2022-11-15T08:57:24;27.30;;;23.42;;
51654;SDS011;37732;53.106;7.030;2022-11-15T08:59:50;25.85;;;23.08;;
51654;SDS011;37732;53.106;7.030;2022-11-15T09:02:16;27.73;;;23.67;;
51654;SDS011;37732;53.106;7.030;2022-11-15T09:04:42;27.48;;;24.27;;
51654;SDS011;37732;53.106;7.030;2022-11-15T09:07:09;28.63;;;23.35;;
51654;SDS011;37732;53.106;7.030;2022-11-15T09:09:36;27.23;;;22.85;;
51654;SDS011;37732;53.106;7.030;2022-11-15T09:12:03;26.48;;;23.65;;
51654;SDS011;37732;53.106;7.030;2022-11-15T09:14:29;28.60;;;24.55;;
51654;SDS011;37732;53.106;7.030;2022-11-15T09:16:56;27.02;;;23.20;;
51654;SDS011;37732;53.106;7.030;2022-11-15T09:19:22;28.08;;;25.10;;
51654;SDS011;37732;53.106;7.030;2022-11-15T09:21:47;28.00;;;23.48;;
51654;SDS011;37732;53.106;7.030;2022-11-15T09:24:13;28.98;;;24.52;;
51654;SDS011;37732;53.106;7.030;2022-11-15T09:26:40;29.73;;;23.05;;
51654;SDS011;37732;53.106;7.030;2022-11-15T09:29:06;28.00;;;23.63;;
51654;SDS011;37732;53.106;7.030;2022-11-15T09:31:32;27.30;;;22.38;;
51654;SDS011;37732;53.106;7.030;2022-11-15T09:33:57;27.40;;;23.45;;
51654;SDS011;37732;53.106;7.030;2022-11-15T09:36:25;27.35;;;23.35;;
51654;SDS011;37732;53.106;7.030;2022-11-15T09:38:50;28.08;;;23.17;;
51654;SDS011;37732;53.106;7.030;2022-11-15T09:44:18;25.92;;;21.42;;
51654;SDS011;37732;53.106;7.030;2022-11-15T09:49:45;24.00;;;20.70;;
51654;SDS011;37732;53.106;7.030;2022-11-15T09:52:16;22.48;;;19.65;;
51654;SDS011;37732;53.106;7.030;2022-11-15T09:54:45;25.67;;;20.83;;
51654;SDS011;37732;53.106;7.030;2022-11-15T09:57:15;23.73;;;20.85;;
51654;SDS011;37732;53.106;7.030;2022-11-15T09:59:51;24.75;;;21.45;;
51654;SDS011;37732;53.106;7.030;2022-11-15T10:05:19;24.95;;;20.70;;
51654;SDS011;37732;53.106;7.030;2022-11-15T10:10:43;25.08;;;20.80;;
51654;SDS011;37732;53.106;7.030;2022-11-15T10:13:16;20.85;;;18.63;;
51654;SDS011;37732;53.106;7.030;2022-11-15T10:15:48;23.27;;;20.77;;
51654;SDS011;37732;53.106;7.030;2022-11-15T10:18:19;22.75;;;20.23;;
51654;SDS011;37732;53.106;7.030;2022-11-15T10:21:02;24.98;;;20.30;;
51654;SDS011;37732;53.106;7.030;2022-11-15T10:23:40;21.83;;;18.75;;
51654;SDS011;37732;53.106;7.030;2022-11-15T10:26:07;21.88;;;19.60;;
51654;SDS011;37732;53.106;7.030;2022-11-15T10:28:36;22.73;;;20.27;;
51654;SDS011;37732;53.106;7.030;2022-11-15T10:31:02;23.63;;;20.98;;
51654;SDS011;37732;53.106;7.030;2022-11-15T10:41:36;20.60;;;18.45;;
51654;SDS011;37732;53.106;7.030;2022-11-15T10:47:22;22.50;;;19.27;;
51654;SDS011;37732;53.106;7.030;2022-11-15T10:49:57;20.67;;;18.48;;
51654;SDS011;37732;53.106;7.030;2022-11-15T10:52:28;18.98;;;16.95;;
51654;SDS011;37732;53.106;7.030;2022-11-15T10:57:51;19.40;;;17.02;;
51654;SDS011;37732;53.106;7.030;2022-11-15T11:08:04;18.42;;;15.45;;
51654;SDS011;37732;53.106;7.030;2022-11-15T11:10:30;18.92;;;16.88;;
51654;SDS011;37732;53.106;7.030;2022-11-15T11:13:14;19.52;;;17.33;;
51654;SDS011;37732;53.106;7.030;2022-11-15T11:15:47;18.58;;;16.63;;
51654;SDS011;37732;53.106;7.030;2022-11-15T11:18:37;19.15;;;17.25;;
51654;SDS011;37732;53.106;7.030;2022-11-15T11:24:40;20.33;;;18.23;;
51654;SDS011;37732;53.106;7.030;2022-11-15T11:30:17;20.10;;;16.33;;
51654;SDS011;37732;53.106;7.030;2022-11-15T11:35:39;18.60;;;16.70;;
51654;SDS011;37732;53.106;7.030;2022-11-15T11:41:03;19.67;;;17.63;;
51654;SDS011;37732;53.106;7.030;2022-11-15T11:49:37;18.50;;;16.60;;
51654;SDS011;37732;53.106;7.030;2022-11-15T11:52:13;19.70;;;17.80;;
51654;SDS011;37732;53.106;7.030;2022-11-15T12:00:24;14.75;;;13.30;;
51654;SDS011;37732;53.106;7.030;2022-11-15T12:05:30;14.70;;;12.48;;
51654;SDS011;37732;53.106;7.030;2022-11-15T12:08:04;13.45;;;10.60;;
51654;SDS011;37732;53.106;7.030;2022-11-15T12:10:50;11.75;;;10.55;;
51654;SDS011;37732;53.106;7.030;2022-11-15T12:13:24;11.60;;;9.48;;
51654;SDS011;37732;53.106;7.030;2022-11-15T12:16:12;11.85;;;9.57;;
51654;SDS011;37732;53.106;7.030;2022-11-15T12:18:49;11.20;;;9.30;;
51654;SDS011;37732;53.106;7.030;2022-11-15T12:24:01;13.70;;;8.35;;
51654;SDS011;37732;53.106;7.030;2022-11-15T12:26:34;9.55;;;8.52;;
51654;SDS011;37732;53.106;7.030;2022-11-15T12:29:19;10.07;;;8.25;;
51654;SDS011;37732;53.106;7.030;2022-11-15T12:32:36;8.90;;;8.00;;
51654;SDS011;37732;53.106;7.030;2022-11-15T12:35:20;8.40;;;6.88;;
51654;SDS011;37732;53.106;7.030;2022-11-15T12:37:51;8.55;;;6.90;;
51654;SDS011;37732;53.106;7.030;2022-11-15T12:40:26;11.00;;;6.85;;
51654;SDS011;37732;53.106;7.030;2022-11-15T12:45:41;7.47;;;5.93;;
51654;SDS011;37732;53.106;7.030;2022-11-15T13:07:00;7.03;;;4.97;;
51654;SDS011;37732;53.106;7.030;2022-11-15T13:19:45;8.65;;;5.00;;
51654;SDS011;37732;53.106;7.030;2022-11-15T13:22:13;6.40;;;4.78;;
51654;SDS011;37732;53.106;7.030;2022-11-15T13:24:58;7.22;;;4.93;;
51654;SDS011;37732;53.106;7.030;2022-11-15T13:27:26;9.20;;;5.60;;
51654;SDS011;37732;53.106;7.030;2022-11-15T13:29:52;8.55;;;4.85;;
51654;SDS011;37732;53.106;7.030;2022-11-15T13:32:18;8.20;;;4.95;;
51654;SDS011;37732;53.106;7.030;2022-11-15T13:34:46;6.35;;;4.32;;
51654;SDS011;37732;53.106;7.030;2022-11-15T13:39:47;7.97;;;4.88;;
51654;SDS011;37732;53.106;7.030;2022-11-15T13:42:18;8.63;;;4.30;;
51654;SDS011;37732;53.106;7.030;2022-11-15T13:44:55;6.07;;;3.67;;
51654;SDS011;37732;53.106;7.030;2022-11-15T13:47:24;7.07;;;4.07;;
51654;SDS011;37732;53.106;7.030;2022-11-15T13:49:58;5.53;;;3.50;;
51654;SDS011;37732;53.106;7.030;2022-11-15T13:52:27;5.30;;;3.63;;
51654;SDS011;37732;53.106;7.030;2022-11-15T13:54:59;6.32;;;3.45;;
51654;SDS011;37732;53.106;7.030;2022-11-15T13:57:36;8.68;;;3.60;;
51654;SDS011;37732;53.106;7.030;2022-11-15T14:02:53;4.03;;;2.47;;
51654;SDS011;37732;53.106;7.030;2022-11-15T14:05:21;5.90;;;3.50;;
51654;SDS011;37732;53.106;7.030;2022-11-15T14:07:58;4.63;;;2.95;;
51654;SDS011;37732;53.106;7.030;2022-11-15T14:10:38;4.18;;;2.88;;
51654;SDS011;37732;53.106;7.030;2022-11-15T14:13:09;4.85;;;3.10;;
51654;SDS011;37732;53.106;7.030;2022-11-15T14:15:52;4.35;;;3.00;;
51654;SDS011;37732;53.106;7.030;2022-11-15T14:21:07;4.95;;;3.58;;
51654;SDS011;37732;53.106;7.030;2022-11-15T14:23:33;6.22;;;3.38;;
51654;SDS011;37732;53.106;7.030;2022-11-15T14:25:59;5.70;;;3.67;;
51654;SDS011;37732;53.106;7.030;2022-11-15T14:30:52;6.53;;;3.53;;
51654;SDS011;37732;53.106;7.030;2022-11-15T14:33:33;7.05;;;4.60;;
51654;SDS011;37732;53.106;7.030;2022-11-15T14:36:14;10.50;;;6.35;;
51654;SDS011;37732;53.106;7.030;2022-11-15T14:38:42;6.18;;;4.25;;
51654;SDS011;37732;53.106;7.030;2022-11-15T14:41:19;8.32;;;4.53;;
51654;SDS011;37732;53.106;7.030;2022-11-15T14:43:47;7.38;;;3.60;;
51654;SDS011;37732;53.106;7.030;2022-11-15T14:46:14;6.85;;;3.55;;
51654;SDS011;37732;53.106;7.030;2022-11-15T14:48:39;6.10;;;3.30;;
51654;SDS011;37732;53.106;7.030;2022-11-15T14:51:23;5.00;;;3.15;;
51654;SDS011;37732;53.106;7.030;2022-11-15T14:56:15;7.43;;;3.05;;
51654;SDS011;37732;53.106;7.030;2022-11-15T14:58:41;4.38;;;2.95;;
51654;SDS011;37732;53.106;7.030;2022-11-15T15:01:12;5.45;;;3.08;;
51654;SDS011;37732;53.106;7.030;2022-11-15T15:03:44;4.85;;;3.10;;
51654;SDS011;37732;53.106;7.030;2022-11-15T15:06:10;5.72;;;3.55;;
51654;SDS011;37732;53.106;7.030;2022-11-15T15:08:38;6.43;;;3.70;;
51654;SDS011;37732;53.106;7.030;2022-11-15T15:11:06;7.00;;;3.85;;
51654;SDS011;37732;53.106;7.030;2022-11-15T15:13:55;5.28;;;3.42;;
51654;SDS011;37732;53.106;7.030;2022-11-15T15:16:22;7.78;;;3.88;;
51654;SDS011;37732;53.106;7.030;2022-11-15T15:18:52;5.30;;;3.47;;
51654;SDS011;37732;53.106;7.030;2022-11-15T15:21:27;4.82;;;3.25;;
51654;SDS011;37732;53.106;7.030;2022-11-15T15:23:56;5.55;;;3.50;;
51654;SDS011;37732;53.106;7.030;2022-11-15T15:26:22;5.85;;;4.75;;
51654;SDS011;37732;53.106;7.030;2022-11-15T15:28:49;7.85;;;5.35;;
51654;SDS011;37732;53.106;7.030;2022-11-15T15:31:16;9.32;;;6.80;;
51654;SDS011;37732;53.106;7.030;2022-11-15T15:33:43;6.47;;;4.88;;
51654;SDS011;37732;53.106;7.030;2022-11-15T15:36:13;7.30;;;4.45;;
51654;SDS011;37732;53.106;7.030;2022-11-15T15:38:42;7.60;;;5.38;;
51654;SDS011;37732;53.106;7.030;2022-11-15T15:41:09;6.50;;;5.00;;
51654;SDS011;37732;53.106;7.030;2022-11-15T15:43:39;5.93;;;4.60;;
51654;SDS011;37732;53.106;7.030;2022-11-15T15:46:08;6.03;;;4.57;;
51654;SDS011;37732;53.106;7.030;2022-11-15T15:48:36;6.07;;;4.80;;
51654;SDS011;37732;53.106;7.030;2022-11-15T15:51:05;6.82;;;4.95;;
51654;SDS011;37732;53.106;7.030;2022-11-15T15:53:32;5.63;;;4.45;;
51654;SDS011;37732;53.106;7.030;2022-11-15T15:55:58;8.68;;;4.97;;
51654;SDS011;37732;53.106;7.030;2022-11-15T15:58:24;11.77;;;8.18;;
51654;SDS011;37732;53.106;7.030;2022-11-15T16:00:49;8.18;;;5.90;;
51654;SDS011;37732;53.106;7.030;2022-11-15T16:03:15;8.90;;;6.57;;
51654;SDS011;37732;53.106;7.030;2022-11-15T16:05:41;6.82;;;5.80;;
51654;SDS011;37732;53.106;7.030;2022-11-15T16:08:16;7.10;;;5.75;;
51654;SDS011;37732;53.106;7.030;2022-11-15T16:10:48;6.97;;;5.55;;
51654;SDS011;37732;53.106;7.030;2022-11-15T16:13:14;8.27;;;5.40;;
51654;SDS011;37732;53.106;7.030;2022-11-15T16:15:40;6.45;;;5.60;;
51654;SDS011;37732;53.106;7.030;2022-11-15T16:18:08;7.82;;;5.45;;
51654;SDS011;37732;53.106;7.030;2022-11-15T16:20:42;6.82;;;5.88;;
51654;SDS011;37732;53.106;7.030;2022-11-15T16:23:15;7.30;;;5.20;;
51654;SDS011;37732;53.106;7.030;2022-11-15T16:25:53;6.63;;;5.50;;
51654;SDS011;37732;53.106;7.030;2022-11-15T16:28:22;7.47;;;5.55;;
51654;SDS011;37732;53.106;7.030;2022-11-15T16:31:00;6.90;;;5.18;;
51654;SDS011;37732;53.106;7.030;2022-11-15T16:33:48;7.22;;;5.03;;
51654;SDS011;37732;53.106;7.030;2022-11-15T16:36:22;6.15;;;5.00;;
51654;SDS011;37732;53.106;7.030;2022-11-15T16:38:50;9.20;;;6.18;;
51654;SDS011;37732;53.106;7.030;2022-11-15T16:41:17;6.10;;;5.03;;
51654;SDS011;37732;53.106;7.030;2022-11-15T16:43:44;6.97;;;5.20;;
51654;SDS011;37732;53.106;7.030;2022-11-15T16:46:20;6.63;;;5.43;;
51654;SDS011;37732;53.106;7.030;2022-11-15T16:48:50;8.10;;;6.57;;
51654;SDS011;37732;53.106;7.030;2022-11-15T16:51:17;7.25;;;5.53;;
51654;SDS011;37732;53.106;7.030;2022-11-15T16:53:44;9.32;;;6.57;;
51654;SDS011;37732;53.106;7.030;2022-11-15T16:56:22;7.45;;;6.10;;
51654;SDS011;37732;53.106;7.030;2022-11-15T16:58:54;6.37;;;5.60;;
51654;SDS011;37732;53.106;7.030;2022-11-15T17:01:43;9.15;;;6.60;;
51654;SDS011;37732;53.106;7.030;2022-11-15T17:04:15;9.23;;;5.75;;
51654;SDS011;37732;53.106;7.030;2022-11-15T17:06:43;7.28;;;5.40;;
51654;SDS011;37732;53.106;7.030;2022-11-15T17:09:17;7.75;;;5.22;;